sensor_id;sensor_type;location;lat;lon;timestamp;P1;durP1;ratioP1;P2;durP2;ratioP2
75655;SDS011;64252;51.094;13.714;2022-12-13T00:01:37;19.33;;;8.15;;
75655;SDS011;64252;51.094;13.714;2022-12-13T00:04:04;18.67;;;8.30;;
75655;SDS011;64252;51.094;13.714;2022-12-13T00:06:31;16.83;;;7.25;;
75655;SDS011;64252;51.094;13.714;2022-12-13T00:08:57;15.13;;;7.20;;
75655;SDS011;64252;51.094;13.714;2022-12-13T00:11:23;17.58;;;7.70;;
75655;SDS011;64252;51.094;13.714;2022-12-13T00:13:49;19.42;;;8.43;;
75655;SDS011;64252;51.094;13.714;2022-12-13T00:16:16;17.35;;;7.20;;
75655;SDS011;64252;51.094;13.714;2022-12-13T00:18:46;14.30;;;6.82;;
75655;SDS011;64252;51.094;13.714;2022-12-13T00:21:13;13.95;;;6.10;;
75655;SDS011;64252;51.094;13.714;2022-12-13T00:23:40;13.55;;;6.22;;
75655;SDS011;64252;51.094;13.714;2022-12-13T00:26:12;14.60;;;6.75;;
75655;SDS011;64252;51.094;13.714;2022-12-13T00:28:39;17.73;;;7.28;;
75655;SDS011;64252;51.094;13.714;2022-12-13T00:31:05;13.82;;;7.15;;
75655;SDS011;64252;51.094;13.714;2022-12-13T00:33:33;14.07;;;6.63;;
75655;SDS011;64252;51.094;13.714;2022-12-13T00:36:01;14.95;;;6.60;;
75655;SDS011;64252;51.094;13.714;2022-12-13T00:38:28;14.38;;;7.55;;
75655;SDS011;64252;51.094;13.714;2022-12-13T00:40:54;14.80;;;6.38;;
75655;SDS011;64252;51.094;13.714;2022-12-13T00:43:19;14.80;;;7.40;;
75655;SDS011;64252;51.094;13.714;2022-12-13T00:45:45;13.27;;;6.65;;
75655;SDS011;64252;51.094;13.714;2022-12-13T00:48:10;14.55;;;7.18;;
75655;SDS011;64252;51.094;13.714;2022-12-13T00:50:36;11.57;;;5.05;;
75655;SDS011;64252;51.094;13.714;2022-12-13T00:53:02;14.25;;;6.55;;
75655;SDS011;64252;51.094;13.714;2022-12-13T00:55:28;13.68;;;6.25;;
75655;SDS011;64252;51.094;13.714;2022-12-13T00:57:54;14.57;;;6.20;;
75655;SDS011;64252;51.094;13.714;2022-12-13T01:00:19;13.85;;;6.80;;
75655;SDS011;64252;51.094;13.714;2022-12-13T01:02:45;16.13;;;7.43;;
75655;SDS011;64252;51.094;13.714;2022-12-13T01:05:11;15.43;;;6.75;;
75655;SDS011;64252;51.094;13.714;2022-12-13T01:07:38;13.13;;;6.68;;
75655;SDS011;64252;51.094;13.714;2022-12-13T01:10:05;13.70;;;6.10;;
75655;SDS011;64252;51.094;13.714;2022-12-13T01:12:32;15.70;;;7.32;;
75655;SDS011;64252;51.094;13.714;2022-12-13T01:14:58;13.30;;;6.35;;
75655;SDS011;64252;51.094;13.714;2022-12-13T01:17:24;16.13;;;7.03;;
75655;SDS011;64252;51.094;13.714;2022-12-13T01:19:49;17.60;;;7.10;;
75655;SDS011;64252;51.094;13.714;2022-12-13T01:22:15;13.73;;;6.28;;
75655;SDS011;64252;51.094;13.714;2022-12-13T01:24:41;14.07;;;6.18;;
75655;SDS011;64252;51.094;13.714;2022-12-13T01:27:06;16.02;;;7.22;;
75655;SDS011;64252;51.094;13.714;2022-12-13T01:29:32;15.32;;;6.50;;
75655;SDS011;64252;51.094;13.714;2022-12-13T01:31:58;15.75;;;7.75;;
75655;SDS011;64252;51.094;13.714;2022-12-13T01:34:24;14.32;;;6.60;;
75655;SDS011;64252;51.094;13.714;2022-12-13T01:36:52;16.90;;;6.68;;
75655;SDS011;64252;51.094;13.714;2022-12-13T01:39:19;12.73;;;6.00;;
75655;SDS011;64252;51.094;13.714;2022-12-13T01:41:46;16.10;;;6.53;;
75655;SDS011;64252;51.094;13.714;2022-12-13T01:47:17;14.35;;;6.45;;
75655;SDS011;64252;51.094;13.714;2022-12-13T01:49:48;12.55;;;6.30;;
75655;SDS011;64252;51.094;13.714;2022-12-13T01:52:14;17.73;;;6.82;;
75655;SDS011;64252;51.094;13.714;2022-12-13T01:54:46;14.52;;;6.15;;
75655;SDS011;64252;51.094;13.714;2022-12-13T01:57:15;13.27;;;6.57;;
75655;SDS011;64252;51.094;13.714;2022-12-13T01:59:43;17.00;;;8.23;;
75655;SDS011;64252;51.094;13.714;2022-12-13T02:02:11;13.88;;;6.93;;
75655;SDS011;64252;51.094;13.714;2022-12-13T02:07:49;17.13;;;7.53;;
75655;SDS011;64252;51.094;13.714;2022-12-13T02:10:15;16.27;;;8.15;;
75655;SDS011;64252;51.094;13.714;2022-12-13T02:12:41;16.73;;;6.78;;
75655;SDS011;64252;51.094;13.714;2022-12-13T02:15:09;14.63;;;7.22;;
75655;SDS011;64252;51.094;13.714;2022-12-13T02:32:29;21.50;;;8.73;;
75655;SDS011;64252;51.094;13.714;2022-12-13T02:41:04;13.90;;;6.60;;
75655;SDS011;64252;51.094;13.714;2022-12-13T02:44:18;14.27;;;6.35;;
75655;SDS011;64252;51.094;13.714;2022-12-13T02:46:30;20.23;;;9.00;;
75655;SDS011;64252;51.094;13.714;2022-12-13T02:49:00;17.90;;;8.20;;
75655;SDS011;64252;51.094;13.714;2022-12-13T02:51:27;15.18;;;6.80;;
75655;SDS011;64252;51.094;13.714;2022-12-13T02:53:54;14.40;;;7.25;;
75655;SDS011;64252;51.094;13.714;2022-12-13T02:56:20;14.98;;;7.70;;
75655;SDS011;64252;51.094;13.714;2022-12-13T02:58:47;17.08;;;7.68;;
75655;SDS011;64252;51.094;13.714;2022-12-13T03:09:56;13.98;;;6.70;;
75655;SDS011;64252;51.094;13.714;2022-12-13T03:12:36;9.40;;;4.35;;
75655;SDS011;64252;51.094;13.714;2022-12-13T03:18:17;17.92;;;7.45;;
75655;SDS011;64252;51.094;13.714;2022-12-13T03:20:52;15.75;;;7.03;;
75655;SDS011;64252;51.094;13.714;2022-12-13T03:23:20;16.35;;;6.72;;
75655;SDS011;64252;51.094;13.714;2022-12-13T03:25:46;14.98;;;7.38;;
75655;SDS011;64252;51.094;13.714;2022-12-13T03:28:16;16.02;;;7.10;;
75655;SDS011;64252;51.094;13.714;2022-12-13T03:30:42;17.25;;;8.38;;
75655;SDS011;64252;51.094;13.714;2022-12-13T03:33:09;14.38;;;6.57;;
75655;SDS011;64252;51.094;13.714;2022-12-13T03:35:34;14.38;;;6.53;;
75655;SDS011;64252;51.094;13.714;2022-12-13T03:38:01;16.55;;;7.13;;
75655;SDS011;64252;51.094;13.714;2022-12-13T03:40:26;15.50;;;6.85;;
75655;SDS011;64252;51.094;13.714;2022-12-13T03:42:54;16.67;;;7.30;;
75655;SDS011;64252;51.094;13.714;2022-12-13T03:45:20;13.20;;;5.68;;
75655;SDS011;64252;51.094;13.714;2022-12-13T03:47:46;14.88;;;6.60;;
75655;SDS011;64252;51.094;13.714;2022-12-13T03:50:12;15.10;;;6.78;;
75655;SDS011;64252;51.094;13.714;2022-12-13T03:52:37;12.57;;;5.57;;
75655;SDS011;64252;51.094;13.714;2022-12-13T03:55:03;14.65;;;7.00;;
75655;SDS011;64252;51.094;13.714;2022-12-13T03:57:29;12.20;;;5.82;;
75655;SDS011;64252;51.094;13.714;2022-12-13T03:59:55;10.00;;;5.38;;
75655;SDS011;64252;51.094;13.714;2022-12-13T04:02:21;12.80;;;5.75;;
75655;SDS011;64252;51.094;13.714;2022-12-13T04:04:46;14.10;;;7.05;;
75655;SDS011;64252;51.094;13.714;2022-12-13T04:07:12;14.43;;;5.93;;
75655;SDS011;64252;51.094;13.714;2022-12-13T04:09:38;13.93;;;6.35;;
75655;SDS011;64252;51.094;13.714;2022-12-13T04:12:03;16.00;;;6.25;;
75655;SDS011;64252;51.094;13.714;2022-12-13T04:14:48;10.23;;;4.63;;
75655;SDS011;64252;51.094;13.714;2022-12-13T04:17:13;17.08;;;7.05;;
75655;SDS011;64252;51.094;13.714;2022-12-13T04:19:39;12.80;;;6.10;;
75655;SDS011;64252;51.094;13.714;2022-12-13T04:22:04;10.98;;;5.63;;
75655;SDS011;64252;51.094;13.714;2022-12-13T04:24:30;13.02;;;6.57;;
75655;SDS011;64252;51.094;13.714;2022-12-13T04:26:56;12.00;;;6.40;;
75655;SDS011;64252;51.094;13.714;2022-12-13T04:29:21;13.40;;;5.82;;
75655;SDS011;64252;51.094;13.714;2022-12-13T04:31:47;14.75;;;5.53;;
75655;SDS011;64252;51.094;13.714;2022-12-13T04:34:13;12.57;;;5.35;;
75655;SDS011;64252;51.094;13.714;2022-12-13T04:36:39;14.85;;;7.13;;
75655;SDS011;64252;51.094;13.714;2022-12-13T04:39:06;13.60;;;6.70;;
75655;SDS011;64252;51.094;13.714;2022-12-13T04:41:34;16.90;;;7.03;;
75655;SDS011;64252;51.094;13.714;2022-12-13T04:44:01;15.07;;;6.60;;
75655;SDS011;64252;51.094;13.714;2022-12-13T04:46:28;14.75;;;6.20;;
75655;SDS011;64252;51.094;13.714;2022-12-13T04:48:54;15.95;;;6.40;;
75655;SDS011;64252;51.094;13.714;2022-12-13T04:51:19;12.90;;;6.75;;
75655;SDS011;64252;51.094;13.714;2022-12-13T04:53:45;12.45;;;6.18;;
75655;SDS011;64252;51.094;13.714;2022-12-13T04:56:10;14.30;;;6.85;;
75655;SDS011;64252;51.094;13.714;2022-12-13T04:58:36;16.55;;;7.28;;
75655;SDS011;64252;51.094;13.714;2022-12-13T05:01:05;14.57;;;6.22;;
75655;SDS011;64252;51.094;13.714;2022-12-13T05:03:31;15.63;;;7.57;;
75655;SDS011;64252;51.094;13.714;2022-12-13T05:05:56;16.02;;;6.65;;
75655;SDS011;64252;51.094;13.714;2022-12-13T05:08:22;16.13;;;6.43;;
75655;SDS011;64252;51.094;13.714;2022-12-13T05:10:47;13.85;;;6.05;;
75655;SDS011;64252;51.094;13.714;2022-12-13T05:13:13;15.07;;;6.82;;
75655;SDS011;64252;51.094;13.714;2022-12-13T05:15:39;17.10;;;7.07;;
75655;SDS011;64252;51.094;13.714;2022-12-13T05:18:05;14.80;;;7.00;;
75655;SDS011;64252;51.094;13.714;2022-12-13T05:20:33;18.38;;;7.47;;
75655;SDS011;64252;51.094;13.714;2022-12-13T05:22:59;13.43;;;6.60;;
75655;SDS011;64252;51.094;13.714;2022-12-13T05:25:24;15.23;;;6.47;;
75655;SDS011;64252;51.094;13.714;2022-12-13T05:27:50;16.58;;;6.95;;
75655;SDS011;64252;51.094;13.714;2022-12-13T05:30:16;15.77;;;6.25;;
75655;SDS011;64252;51.094;13.714;2022-12-13T05:32:42;17.92;;;8.02;;
75655;SDS011;64252;51.094;13.714;2022-12-13T05:35:07;17.73;;;7.95;;
75655;SDS011;64252;51.094;13.714;2022-12-13T05:37:33;14.45;;;7.00;;
75655;SDS011;64252;51.094;13.714;2022-12-13T05:39:59;15.90;;;7.57;;
75655;SDS011;64252;51.094;13.714;2022-12-13T05:42:24;14.43;;;6.80;;
75655;SDS011;64252;51.094;13.714;2022-12-13T05:44:50;15.32;;;7.75;;
75655;SDS011;64252;51.094;13.714;2022-12-13T05:47:17;17.42;;;7.43;;
75655;SDS011;64252;51.094;13.714;2022-12-13T05:49:42;16.92;;;7.65;;
75655;SDS011;64252;51.094;13.714;2022-12-13T05:52:15;18.02;;;8.07;;
75655;SDS011;64252;51.094;13.714;2022-12-13T05:54:42;16.50;;;7.65;;
75655;SDS011;64252;51.094;13.714;2022-12-13T05:57:07;15.45;;;7.20;;
75655;SDS011;64252;51.094;13.714;2022-12-13T05:59:35;16.35;;;6.95;;
75655;SDS011;64252;51.094;13.714;2022-12-13T06:02:00;17.45;;;7.78;;
75655;SDS011;64252;51.094;13.714;2022-12-13T06:04:26;18.70;;;8.43;;
75655;SDS011;64252;51.094;13.714;2022-12-13T06:06:51;17.48;;;7.88;;
75655;SDS011;64252;51.094;13.714;2022-12-13T06:09:18;19.33;;;7.63;;
75655;SDS011;64252;51.094;13.714;2022-12-13T06:11:44;16.33;;;8.43;;
75655;SDS011;64252;51.094;13.714;2022-12-13T06:14:10;15.18;;;6.95;;
75655;SDS011;64252;51.094;13.714;2022-12-13T06:16:35;18.08;;;7.53;;
75655;SDS011;64252;51.094;13.714;2022-12-13T06:19:01;15.02;;;7.22;;
75655;SDS011;64252;51.094;13.714;2022-12-13T06:21:26;17.52;;;8.13;;
75655;SDS011;64252;51.094;13.714;2022-12-13T06:23:52;23.35;;;8.18;;
75655;SDS011;64252;51.094;13.714;2022-12-13T06:26:19;15.05;;;6.72;;
75655;SDS011;64252;51.094;13.714;2022-12-13T06:28:44;17.67;;;8.02;;
75655;SDS011;64252;51.094;13.714;2022-12-13T06:31:10;20.55;;;8.15;;
75655;SDS011;64252;51.094;13.714;2022-12-13T06:33:35;20.40;;;9.48;;
75655;SDS011;64252;51.094;13.714;2022-12-13T06:36:03;19.15;;;9.20;;
75655;SDS011;64252;51.094;13.714;2022-12-13T06:38:29;19.20;;;8.40;;
75655;SDS011;64252;51.094;13.714;2022-12-13T06:41:04;16.70;;;6.68;;
75655;SDS011;64252;51.094;13.714;2022-12-13T06:43:31;16.98;;;6.90;;
75655;SDS011;64252;51.094;13.714;2022-12-13T06:45:56;16.23;;;7.63;;
75655;SDS011;64252;51.094;13.714;2022-12-13T06:48:22;18.95;;;8.98;;
75655;SDS011;64252;51.094;13.714;2022-12-13T06:50:47;25.00;;;9.18;;
75655;SDS011;64252;51.094;13.714;2022-12-13T06:53:13;20.48;;;8.55;;
75655;SDS011;64252;51.094;13.714;2022-12-13T06:55:38;23.35;;;10.57;;
75655;SDS011;64252;51.094;13.714;2022-12-13T06:58:04;26.13;;;9.23;;
75655;SDS011;64252;51.094;13.714;2022-12-13T07:00:29;23.30;;;9.57;;
75655;SDS011;64252;51.094;13.714;2022-12-13T07:02:55;24.88;;;10.50;;
75655;SDS011;64252;51.094;13.714;2022-12-13T07:05:21;26.00;;;10.65;;
75655;SDS011;64252;51.094;13.714;2022-12-13T07:07:47;23.90;;;10.23;;
75655;SDS011;64252;51.094;13.714;2022-12-13T07:10:13;25.95;;;9.50;;
75655;SDS011;64252;51.094;13.714;2022-12-13T07:12:38;21.13;;;9.05;;
75655;SDS011;64252;51.094;13.714;2022-12-13T07:15:04;24.08;;;10.20;;
75655;SDS011;64252;51.094;13.714;2022-12-13T07:17:30;28.73;;;9.05;;
75655;SDS011;64252;51.094;13.714;2022-12-13T07:19:56;22.48;;;8.73;;
75655;SDS011;64252;51.094;13.714;2022-12-13T07:22:21;24.85;;;9.07;;
75655;SDS011;64252;51.094;13.714;2022-12-13T07:24:47;27.08;;;9.15;;
75655;SDS011;64252;51.094;13.714;2022-12-13T07:27:12;22.20;;;9.45;;
75655;SDS011;64252;51.094;13.714;2022-12-13T07:29:38;20.52;;;9.13;;
75655;SDS011;64252;51.094;13.714;2022-12-13T07:32:03;24.42;;;9.43;;
75655;SDS011;64252;51.094;13.714;2022-12-13T07:34:30;26.42;;;9.63;;
75655;SDS011;64252;51.094;13.714;2022-12-13T07:36:56;25.80;;;9.82;;
75655;SDS011;64252;51.094;13.714;2022-12-13T07:39:24;23.92;;;8.32;;
75655;SDS011;64252;51.094;13.714;2022-12-13T07:41:52;17.00;;;8.15;;
75655;SDS011;64252;51.094;13.714;2022-12-13T07:44:20;25.85;;;10.32;;
75655;SDS011;64252;51.094;13.714;2022-12-13T07:46:45;22.70;;;8.18;;
75655;SDS011;64252;51.094;13.714;2022-12-13T07:49:11;22.85;;;8.88;;
75655;SDS011;64252;51.094;13.714;2022-12-13T07:51:36;24.63;;;9.13;;
75655;SDS011;64252;51.094;13.714;2022-12-13T07:54:02;24.33;;;8.35;;
75655;SDS011;64252;51.094;13.714;2022-12-13T07:56:28;26.92;;;9.88;;
75655;SDS011;64252;51.094;13.714;2022-12-13T07:58:54;26.70;;;9.18;;
75655;SDS011;64252;51.094;13.714;2022-12-13T08:01:19;25.83;;;8.15;;
75655;SDS011;64252;51.094;13.714;2022-12-13T08:03:46;20.13;;;7.90;;
75655;SDS011;64252;51.094;13.714;2022-12-13T08:06:12;21.80;;;7.72;;
75655;SDS011;64252;51.094;13.714;2022-12-13T08:08:38;24.63;;;9.00;;
75655;SDS011;64252;51.094;13.714;2022-12-13T08:11:11;17.42;;;8.20;;
75655;SDS011;64252;51.094;13.714;2022-12-13T08:13:37;18.50;;;8.18;;
75655;SDS011;64252;51.094;13.714;2022-12-13T08:16:05;21.60;;;9.45;;
75655;SDS011;64252;51.094;13.714;2022-12-13T08:18:33;23.20;;;10.05;;
75655;SDS011;64252;51.094;13.714;2022-12-13T08:20:59;24.25;;;9.43;;
75655;SDS011;64252;51.094;13.714;2022-12-13T08:23:26;18.92;;;8.48;;
75655;SDS011;64252;51.094;13.714;2022-12-13T08:25:54;22.52;;;10.68;;
75655;SDS011;64252;51.094;13.714;2022-12-13T08:28:19;25.92;;;10.40;;
75655;SDS011;64252;51.094;13.714;2022-12-13T08:30:46;23.73;;;10.15;;
75655;SDS011;64252;51.094;13.714;2022-12-13T08:33:13;17.77;;;8.38;;
75655;SDS011;64252;51.094;13.714;2022-12-13T08:35:40;23.33;;;10.52;;
75655;SDS011;64252;51.094;13.714;2022-12-13T08:38:05;23.35;;;8.85;;
75655;SDS011;64252;51.094;13.714;2022-12-13T08:40:31;23.15;;;9.25;;
75655;SDS011;64252;51.094;13.714;2022-12-13T08:42:57;24.50;;;9.18;;
75655;SDS011;64252;51.094;13.714;2022-12-13T08:45:22;20.02;;;9.65;;
75655;SDS011;64252;51.094;13.714;2022-12-13T08:47:48;19.92;;;7.93;;
75655;SDS011;64252;51.094;13.714;2022-12-13T08:50:14;20.90;;;9.75;;
75655;SDS011;64252;51.094;13.714;2022-12-13T08:52:40;22.52;;;10.05;;
75655;SDS011;64252;51.094;13.714;2022-12-13T08:55:10;22.52;;;9.85;;
75655;SDS011;64252;51.094;13.714;2022-12-13T08:57:37;20.92;;;9.70;;
75655;SDS011;64252;51.094;13.714;2022-12-13T09:00:06;19.88;;;9.15;;
75655;SDS011;64252;51.094;13.714;2022-12-13T09:02:35;23.05;;;8.63;;
75655;SDS011;64252;51.094;13.714;2022-12-13T09:05:01;24.27;;;8.75;;
75655;SDS011;64252;51.094;13.714;2022-12-13T09:07:27;20.25;;;9.07;;
75655;SDS011;64252;51.094;13.714;2022-12-13T09:09:53;21.52;;;9.32;;
75655;SDS011;64252;51.094;13.714;2022-12-13T09:12:19;20.38;;;8.20;;
75655;SDS011;64252;51.094;13.714;2022-12-13T09:14:45;22.25;;;9.90;;
75655;SDS011;64252;51.094;13.714;2022-12-13T09:17:14;20.05;;;8.98;;
75655;SDS011;64252;51.094;13.714;2022-12-13T09:19:40;20.17;;;9.27;;
75655;SDS011;64252;51.094;13.714;2022-12-13T09:22:06;21.45;;;10.15;;
75655;SDS011;64252;51.094;13.714;2022-12-13T09:24:31;18.70;;;9.18;;
75655;SDS011;64252;51.094;13.714;2022-12-13T09:26:57;20.77;;;8.82;;
75655;SDS011;64252;51.094;13.714;2022-12-13T09:29:23;20.02;;;8.95;;
75655;SDS011;64252;51.094;13.714;2022-12-13T09:31:49;20.83;;;9.23;;
75655;SDS011;64252;51.094;13.714;2022-12-13T09:34:15;23.98;;;9.60;;
75655;SDS011;64252;51.094;13.714;2022-12-13T09:36:40;17.77;;;8.45;;
75655;SDS011;64252;51.094;13.714;2022-12-13T09:39:06;20.90;;;9.40;;
75655;SDS011;64252;51.094;13.714;2022-12-13T09:44:34;19.70;;;8.48;;
75655;SDS011;64252;51.094;13.714;2022-12-13T09:47:03;19.13;;;8.63;;
75655;SDS011;64252;51.094;13.714;2022-12-13T09:49:37;17.75;;;8.32;;
75655;SDS011;64252;51.094;13.714;2022-12-13T09:52:06;22.33;;;8.85;;
75655;SDS011;64252;51.094;13.714;2022-12-13T09:54:39;17.33;;;7.75;;
75655;SDS011;64252;51.094;13.714;2022-12-13T09:57:19;19.17;;;8.50;;
75655;SDS011;64252;51.094;13.714;2022-12-13T09:59:48;16.77;;;7.60;;
75655;SDS011;64252;51.094;13.714;2022-12-13T10:04:45;16.13;;;8.35;;
75655;SDS011;64252;51.094;13.714;2022-12-13T10:07:18;18.52;;;8.20;;
75655;SDS011;64252;51.094;13.714;2022-12-13T10:09:46;20.58;;;7.68;;
75655;SDS011;64252;51.094;13.714;2022-12-13T10:12:12;17.85;;;8.23;;
75655;SDS011;64252;51.094;13.714;2022-12-13T10:14:43;18.10;;;8.13;;
75655;SDS011;64252;51.094;13.714;2022-12-13T10:17:14;21.48;;;8.40;;
75655;SDS011;64252;51.094;13.714;2022-12-13T10:19:46;17.27;;;8.02;;
75655;SDS011;64252;51.094;13.714;2022-12-13T10:22:17;17.77;;;7.93;;
75655;SDS011;64252;51.094;13.714;2022-12-13T10:24:48;18.83;;;7.88;;
75655;SDS011;64252;51.094;13.714;2022-12-13T10:27:18;23.15;;;8.95;;
75655;SDS011;64252;51.094;13.714;2022-12-13T10:32:51;16.92;;;8.05;;
75655;SDS011;64252;51.094;13.714;2022-12-13T10:37:53;17.50;;;7.68;;
75655;SDS011;64252;51.094;13.714;2022-12-13T10:43:14;17.48;;;7.65;;
75655;SDS011;64252;51.094;13.714;2022-12-13T10:48:24;17.38;;;8.00;;
75655;SDS011;64252;51.094;13.714;2022-12-13T10:50:59;16.70;;;7.15;;
75655;SDS011;64252;51.094;13.714;2022-12-13T10:53:28;16.88;;;7.50;;
75655;SDS011;64252;51.094;13.714;2022-12-13T10:55:56;16.60;;;6.95;;
75655;SDS011;64252;51.094;13.714;2022-12-13T10:58:23;18.23;;;8.00;;
75655;SDS011;64252;51.094;13.714;2022-12-13T11:01:07;14.55;;;6.68;;
75655;SDS011;64252;51.094;13.714;2022-12-13T11:04:03;14.77;;;6.22;;
75655;SDS011;64252;51.094;13.714;2022-12-13T11:06:43;14.18;;;6.57;;
75655;SDS011;64252;51.094;13.714;2022-12-13T11:09:14;13.32;;;6.70;;
75655;SDS011;64252;51.094;13.714;2022-12-13T11:12:01;15.80;;;7.40;;
75655;SDS011;64252;51.094;13.714;2022-12-13T11:14:32;13.60;;;6.40;;
75655;SDS011;64252;51.094;13.714;2022-12-13T11:17:11;13.82;;;6.55;;
75655;SDS011;64252;51.094;13.714;2022-12-13T11:19:48;16.48;;;7.47;;
75655;SDS011;64252;51.094;13.714;2022-12-13T11:22:23;14.20;;;7.28;;
75655;SDS011;64252;51.094;13.714;2022-12-13T11:24:54;15.57;;;7.05;;
75655;SDS011;64252;51.094;13.714;2022-12-13T11:30:23;13.40;;;6.28;;
75655;SDS011;64252;51.094;13.714;2022-12-13T11:35:23;15.18;;;6.50;;
75655;SDS011;64252;51.094;13.714;2022-12-13T11:40:41;14.02;;;6.55;;
75655;SDS011;64252;51.094;13.714;2022-12-13T11:43:22;13.15;;;6.07;;
75655;SDS011;64252;51.094;13.714;2022-12-13T11:49:16;13.13;;;6.50;;
75655;SDS011;64252;51.094;13.714;2022-12-13T11:51:55;12.40;;;5.90;;
75655;SDS011;64252;51.094;13.714;2022-12-13T11:58:00;15.30;;;6.28;;
75655;SDS011;64252;51.094;13.714;2022-12-13T12:00:31;13.07;;;6.35;;
75655;SDS011;64252;51.094;13.714;2022-12-13T12:03:19;11.63;;;5.53;;
75655;SDS011;64252;51.094;13.714;2022-12-13T12:08:32;15.65;;;6.80;;
75655;SDS011;64252;51.094;13.714;2022-12-13T12:13:51;13.63;;;6.43;;
75655;SDS011;64252;51.094;13.714;2022-12-13T12:19:01;11.35;;;5.32;;
75655;SDS011;64252;51.094;13.714;2022-12-13T12:26:48;11.90;;;5.47;;
75655;SDS011;64252;51.094;13.714;2022-12-13T12:37:38;13.52;;;5.63;;
75655;SDS011;64252;51.094;13.714;2022-12-13T12:42:57;12.57;;;5.57;;
75655;SDS011;64252;51.094;13.714;2022-12-13T12:45:38;13.68;;;5.82;;
75655;SDS011;64252;51.094;13.714;2022-12-13T12:51:42;13.32;;;6.03;;
75655;SDS011;64252;51.094;13.714;2022-12-13T12:57:11;10.55;;;4.80;;
75655;SDS011;64252;51.094;13.714;2022-12-13T13:03:16;8.30;;;4.03;;
75655;SDS011;64252;51.094;13.714;2022-12-13T13:05:41;8.73;;;4.18;;
75655;SDS011;64252;51.094;13.714;2022-12-13T13:08:17;9.75;;;4.65;;
75655;SDS011;64252;51.094;13.714;2022-12-13T13:10:46;12.90;;;5.60;;
75655;SDS011;64252;51.094;13.714;2022-12-13T13:13:32;12.55;;;5.25;;
75655;SDS011;64252;51.094;13.714;2022-12-13T13:18:54;10.02;;;4.22;;
75655;SDS011;64252;51.094;13.714;2022-12-13T13:21:24;10.00;;;4.47;;
75655;SDS011;64252;51.094;13.714;2022-12-13T13:29:24;10.32;;;5.18;;
75655;SDS011;64252;51.094;13.714;2022-12-13T13:34:32;11.57;;;4.90;;
75655;SDS011;64252;51.094;13.714;2022-12-13T13:40:32;8.82;;;4.05;;
75655;SDS011;64252;51.094;13.714;2022-12-13T13:45:29;9.27;;;3.85;;
75655;SDS011;64252;51.094;13.714;2022-12-13T13:51:04;9.98;;;4.43;;
75655;SDS011;64252;51.094;13.714;2022-12-13T13:56:36;12.00;;;4.85;;
75655;SDS011;64252;51.094;13.714;2022-12-13T13:59:24;9.80;;;3.80;;
75655;SDS011;64252;51.094;13.714;2022-12-13T14:22:25;7.72;;;3.38;;
75655;SDS011;64252;51.094;13.714;2022-12-13T14:24:55;7.72;;;3.22;;
75655;SDS011;64252;51.094;13.714;2022-12-13T14:27:32;10.98;;;4.40;;
75655;SDS011;64252;51.094;13.714;2022-12-13T14:30:19;10.70;;;4.68;;
75655;SDS011;64252;51.094;13.714;2022-12-13T14:35:21;10.63;;;4.30;;
75655;SDS011;64252;51.094;13.714;2022-12-13T14:40:51;7.63;;;3.08;;
75655;SDS011;64252;51.094;13.714;2022-12-13T14:43:29;9.55;;;3.88;;
75655;SDS011;64252;51.094;13.714;2022-12-13T14:45:57;9.68;;;4.28;;
75655;SDS011;64252;51.094;13.714;2022-12-13T14:48:25;10.68;;;4.00;;
75655;SDS011;64252;51.094;13.714;2022-12-13T14:50:53;9.68;;;4.35;;
75655;SDS011;64252;51.094;13.714;2022-12-13T14:53:29;10.65;;;4.25;;
75655;SDS011;64252;51.094;13.714;2022-12-13T14:58:38;7.68;;;3.72;;
75655;SDS011;64252;51.094;13.714;2022-12-13T15:01:22;8.18;;;3.60;;
75655;SDS011;64252;51.094;13.714;2022-12-13T15:03:50;12.88;;;4.57;;
75655;SDS011;64252;51.094;13.714;2022-12-13T15:06:17;13.48;;;4.93;;
75655;SDS011;64252;51.094;13.714;2022-12-13T15:08:44;11.35;;;4.88;;
75655;SDS011;64252;51.094;13.714;2022-12-13T15:11:10;11.85;;;4.07;;
75655;SDS011;64252;51.094;13.714;2022-12-13T15:16:08;12.13;;;4.00;;
75655;SDS011;64252;51.094;13.714;2022-12-13T15:18:47;9.10;;;3.95;;
75655;SDS011;64252;51.094;13.714;2022-12-13T15:21:23;12.88;;;5.00;;
75655;SDS011;64252;51.094;13.714;2022-12-13T15:23:56;11.90;;;4.35;;
75655;SDS011;64252;51.094;13.714;2022-12-13T15:26:26;10.43;;;4.07;;
75655;SDS011;64252;51.094;13.714;2022-12-13T15:28:53;15.88;;;6.10;;
75655;SDS011;64252;51.094;13.714;2022-12-13T15:31:20;19.33;;;7.88;;
75655;SDS011;64252;51.094;13.714;2022-12-13T15:33:48;18.02;;;7.70;;
75655;SDS011;64252;51.094;13.714;2022-12-13T15:38:47;15.68;;;5.78;;
75655;SDS011;64252;51.094;13.714;2022-12-13T15:41:26;16.08;;;7.75;;
75655;SDS011;64252;51.094;13.714;2022-12-13T15:46:32;14.43;;;5.68;;
75655;SDS011;64252;51.094;13.714;2022-12-13T15:49:02;11.93;;;5.22;;
75655;SDS011;64252;51.094;13.714;2022-12-13T15:51:29;13.13;;;4.80;;
75655;SDS011;64252;51.094;13.714;2022-12-13T15:57:01;12.18;;;5.32;;
75655;SDS011;64252;51.094;13.714;2022-12-13T15:59:45;16.33;;;5.63;;
75655;SDS011;64252;51.094;13.714;2022-12-13T16:02:16;18.23;;;7.05;;
75655;SDS011;64252;51.094;13.714;2022-12-13T16:04:45;23.17;;;9.85;;
75655;SDS011;64252;51.094;13.714;2022-12-13T16:07:21;19.55;;;8.32;;
75655;SDS011;64252;51.094;13.714;2022-12-13T16:10:07;14.38;;;7.20;;
75655;SDS011;64252;51.094;13.714;2022-12-13T16:12:43;14.05;;;5.70;;
75655;SDS011;64252;51.094;13.714;2022-12-13T16:17:38;16.10;;;7.35;;
75655;SDS011;64252;51.094;13.714;2022-12-13T16:20:12;14.20;;;6.65;;
75655;SDS011;64252;51.094;13.714;2022-12-13T16:22:40;18.90;;;8.18;;
75655;SDS011;64252;51.094;13.714;2022-12-13T16:25:16;15.73;;;7.18;;
75655;SDS011;64252;51.094;13.714;2022-12-13T16:27:44;16.73;;;7.30;;
75655;SDS011;64252;51.094;13.714;2022-12-13T16:30:14;19.63;;;7.85;;
75655;SDS011;64252;51.094;13.714;2022-12-13T16:32:48;20.38;;;7.28;;
75655;SDS011;64252;51.094;13.714;2022-12-13T16:35:14;20.45;;;8.02;;
75655;SDS011;64252;51.094;13.714;2022-12-13T16:37:40;18.52;;;7.85;;
75655;SDS011;64252;51.094;13.714;2022-12-13T16:40:19;15.73;;;6.82;;
75655;SDS011;64252;51.094;13.714;2022-12-13T16:42:49;16.58;;;7.18;;
75655;SDS011;64252;51.094;13.714;2022-12-13T16:45:14;13.77;;;5.93;;
75655;SDS011;64252;51.094;13.714;2022-12-13T16:47:40;13.38;;;5.15;;
75655;SDS011;64252;51.094;13.714;2022-12-13T16:50:09;16.63;;;6.43;;
75655;SDS011;64252;51.094;13.714;2022-12-13T16:52:39;13.57;;;5.57;;
75655;SDS011;64252;51.094;13.714;2022-12-13T16:55:05;13.55;;;5.28;;
75655;SDS011;64252;51.094;13.714;2022-12-13T16:57:31;13.45;;;6.13;;
75655;SDS011;64252;51.094;13.714;2022-12-13T16:59:57;13.57;;;5.38;;
75655;SDS011;64252;51.094;13.714;2022-12-13T17:02:23;12.82;;;5.20;;
75655;SDS011;64252;51.094;13.714;2022-12-13T17:04:48;13.38;;;5.07;;
75655;SDS011;64252;51.094;13.714;2022-12-13T17:07:14;14.38;;;5.50;;
75655;SDS011;64252;51.094;13.714;2022-12-13T17:09:40;16.77;;;6.47;;
75655;SDS011;64252;51.094;13.714;2022-12-13T17:12:06;14.30;;;6.50;;
75655;SDS011;64252;51.094;13.714;2022-12-13T17:14:32;24.63;;;9.93;;
75655;SDS011;64252;51.094;13.714;2022-12-13T17:16:58;19.27;;;9.50;;
75655;SDS011;64252;51.094;13.714;2022-12-13T17:19:24;24.75;;;12.07;;